createdAt,value
2017-07-27T00:00:00.837Z,82.43
2017-07-27T00:00:58.917Z,82.46
2017-07-27T00:01:56.602Z,82.45
2017-07-27T00:02:58.211Z,82.47
2017-07-27T00:04:01.292Z,82.48
2017-07-27T00:05:02.876Z,82.51
2017-07-27T00:06:06.829Z,82.58
2017-07-27T00:07:05.787Z,82.61
2017-07-27T00:08:04.638Z,82.62
2017-07-27T00:09:05.476Z,82.63
2017-07-27T00:10:06.714Z,82.62
2017-07-27T00:11:09.962Z,82.60
2017-07-27T00:12:13.485Z,82.62
2017-07-27T00:13:20.415Z,82.58
2017-07-27T00:14:21.251Z,82.61
2017-07-27T00:15:22.572Z,82.66
2017-07-27T00:17:31.724Z,82.63
2017-07-27T00:18:33.091Z,82.63
2017-07-27T00:19:32.879Z,82.61
2017-07-27T00:20:30.598Z,82.59
2017-07-27T00:21:31.871Z,82.60
2017-07-27T00:22:29.656Z,82.59
2017-07-27T00:23:28.499Z,82.60
2017-07-27T00:24:26.163Z,82.59
2017-07-27T00:26:26.252Z,82.58
2017-07-27T00:27:24.663Z,82.64
2017-07-27T00:28:23.702Z,82.72
2017-07-27T00:29:22.102Z,82.78
2017-07-27T00:30:21.405Z,82.79
2017-07-27T00:31:20.889Z,82.79
2017-07-27T00:32:20.272Z,82.78
2017-07-27T00:33:18.171Z,82.89
2017-07-27T00:34:17.279Z,82.91
2017-07-27T00:35:17.851Z,82.93
2017-07-27T00:36:17.424Z,82.97
2017-07-27T00:37:15.941Z,83.00
2017-07-27T00:38:12.709Z,83.05
2017-07-27T00:39:10.501Z,83.08
2017-07-27T00:40:08.015Z,83.09
2017-07-27T00:41:05.947Z,83.12
2017-07-27T00:42:03.380Z,83.11
2017-07-27T00:43:00.542Z,83.17
2017-07-27T00:43:58.582Z,83.15
2017-07-27T00:44:58.218Z,83.19
2017-07-27T00:45:56.668Z,83.19
2017-07-27T00:46:55.119Z,83.20
2017-07-27T00:47:52.884Z,83.16
2017-07-27T00:48:50.876Z,83.17
2017-07-27T00:49:50.695Z,83.12
2017-07-27T00:50:49.454Z,83.13
2017-07-27T00:51:52.700Z,83.13
2017-07-27T00:52:50.774Z,83.12
2017-07-27T00:53:49.089Z,83.09
2017-07-27T00:54:47.494Z,83.10
2017-07-27T00:55:47.820Z,83.12
2017-07-27T00:56:50.658Z,83.14
2017-07-27T00:57:49.080Z,83.19
2017-07-27T00:58:48.061Z,83.19
2017-07-27T00:59:45.555Z,83.20
2017-07-27T01:00:42.710Z,83.26
2017-07-27T01:01:41.275Z,83.25
2017-07-27T01:02:40.650Z,83.28
2017-07-27T01:03:39.468Z,83.25
2017-07-27T01:04:38.477Z,83.22
2017-07-27T01:05:37.050Z,83.23
2017-07-27T01:06:34.728Z,83.24
2017-07-27T01:07:33.364Z,83.25
2017-07-27T01:08:30.417Z,83.25
2017-07-27T01:09:28.420Z,83.27
2017-07-27T01:10:26.764Z,83.29
2017-07-27T01:11:27.376Z,83.29
2017-07-27T01:12:24.576Z,83.28
2017-07-27T01:13:23.287Z,83.26
2017-07-27T01:14:22.455Z,83.22
2017-07-27T01:15:19.864Z,83.17
2017-07-27T01:16:16.728Z,83.12
2017-07-27T01:17:14.583Z,83.06
2017-07-27T01:18:12.008Z,83.03
2017-07-27T01:19:09.449Z,82.99
2017-07-27T01:20:09.313Z,82.93
2017-07-27T01:21:06.309Z,82.90
2017-07-27T01:22:07.204Z,82.83
2017-07-27T01:23:06.461Z,82.79
2017-07-27T01:24:08.777Z,82.77
2017-07-27T01:25:07.188Z,82.77
2017-07-27T01:26:04.742Z,82.74
2017-07-27T01:27:02.540Z,82.74
2017-07-27T01:28:00.479Z,82.73
2017-07-27T01:28:59.667Z,82.81
2017-07-27T01:30:03.996Z,82.84
2017-07-27T01:31:03.901Z,82.91
2017-07-27T01:32:02.334Z,83.02
2017-07-27T01:33:00.770Z,83.02
2017-07-27T01:33:59.221Z,83.09
2017-07-27T01:34:56.989Z,83.12
2017-07-27T01:35:55.598Z,83.15
2017-07-27T01:36:53.195Z,83.21
2017-07-27T01:37:51.912Z,83.21
2017-07-27T01:38:49.479Z,83.24
2017-07-27T01:39:51.956Z,83.31
2017-07-27T01:40:49.729Z,83.31
2017-07-27T01:41:47.217Z,83.31
2017-07-27T01:42:47.755Z,83.30
2017-07-27T01:43:45.280Z,83.33
2017-07-27T01:44:43.919Z,83.34
2017-07-27T01:45:41.132Z,83.35
2017-07-27T01:46:41.191Z,83.40
2017-07-27T01:47:39.300Z,83.38
2017-07-27T01:48:36.361Z,83.35
2017-07-27T01:49:34.172Z,83.34
2017-07-27T01:50:39.334Z,83.32
2017-07-27T01:51:36.756Z,83.26
2017-07-27T01:52:33.939Z,83.21
2017-07-27T01:53:31.733Z,83.20
2017-07-27T01:54:29.096Z,83.17
2017-07-27T01:55:27.099Z,83.16
2017-07-27T01:56:24.245Z,83.16
2017-07-27T01:57:21.721Z,83.16
2017-07-27T01:58:23.313Z,83.14
2017-07-27T01:59:21.570Z,83.10
2017-07-27T02:00:19.779Z,83.14
2017-07-27T02:01:17.899Z,83.14
2017-07-27T02:02:15.135Z,83.13
2017-07-27T02:03:13.032Z,83.10
2017-07-27T02:04:10.088Z,83.12
2017-07-27T02:05:08.476Z,83.11
2017-07-27T02:06:05.567Z,83.15
2017-07-27T02:07:02.902Z,83.14
2017-07-27T02:08:07.998Z,83.19
2017-07-27T02:09:05.947Z,83.16
2017-07-27T02:10:03.720Z,83.20
2017-07-27T02:11:03.056Z,83.20
2017-07-27T02:12:03.371Z,83.24
2017-07-27T02:13:08.442Z,83.31
2017-07-27T02:14:04.966Z,83.38
2017-07-27T02:15:02.086Z,83.36
2017-07-27T02:16:01.028Z,83.40
2017-07-27T02:17:01.332Z,83.44
2017-07-27T02:18:02.848Z,83.46
2017-07-27T02:18:59.410Z,83.49
2017-07-27T02:20:04.906Z,83.52
2017-07-27T02:22:05.877Z,83.59
2017-07-27T02:23:03.798Z,83.70
2017-07-27T02:24:01.164Z,83.69
2017-07-27T02:24:58.024Z,83.71
2017-07-27T02:25:56.718Z,83.70
2017-07-27T02:26:54.047Z,83.70
2017-07-27T02:27:52.889Z,83.68
2017-07-27T02:28:54.001Z,83.69
2017-07-27T02:29:51.591Z,83.74
2017-07-27T02:31:02.953Z,83.75
2017-07-27T02:33:14.374Z,83.80
2017-07-27T02:34:11.596Z,83.82
2017-07-27T02:35:09.606Z,83.84
2017-07-27T02:36:09.223Z,83.90
2017-07-27T02:37:08.110Z,84.04
2017-07-27T02:38:07.420Z,84.07
2017-07-27T02:39:05.699Z,84.12
2017-07-27T02:40:08.018Z,84.16
2017-07-27T02:41:06.548Z,84.28
2017-07-27T02:42:05.220Z,84.31
2017-07-27T02:43:03.654Z,84.38
2017-07-27T02:44:02.397Z,84.42
2017-07-27T02:44:59.810Z,84.47
2017-07-27T02:45:58.292Z,84.49
2017-07-27T02:46:59.332Z,84.50
2017-07-27T02:47:57.215Z,84.53
2017-07-27T02:48:57.539Z,84.58
2017-07-27T02:49:55.423Z,84.66
2017-07-27T02:50:54.403Z,84.72
2017-07-27T02:51:52.232Z,84.81
2017-07-27T02:52:50.676Z,84.89
2017-07-27T02:53:50.318Z,84.92
2017-07-27T02:54:51.244Z,84.98
2017-07-27T02:55:48.776Z,85.04
2017-07-27T02:56:47.195Z,85.05
2017-07-27T02:57:45.838Z,85.09
2017-07-27T02:58:45.699Z,85.12
2017-07-27T02:59:42.705Z,85.11
2017-07-27T03:00:40.312Z,85.12
2017-07-27T03:01:41.592Z,85.12
2017-07-27T03:02:38.700Z,85.12
2017-07-27T03:03:42.203Z,85.13
2017-07-27T03:04:45.699Z,85.14
2017-07-27T03:05:42.606Z,85.15
2017-07-27T03:06:39.987Z,85.15
2017-07-27T03:07:38.049Z,85.18
2017-07-27T03:08:34.987Z,85.20
2017-07-27T03:09:31.719Z,85.22
2017-07-27T03:10:28.159Z,85.27
2017-07-27T03:11:24.926Z,85.34
2017-07-27T03:12:21.478Z,85.37
2017-07-27T03:13:18.567Z,85.42
2017-07-27T03:14:15.227Z,85.44
2017-07-27T03:15:12.193Z,85.47
2017-07-27T03:16:08.748Z,85.50
2017-07-27T03:17:05.798Z,85.54
2017-07-27T03:18:03.975Z,85.64
2017-07-27T03:19:00.779Z,85.68
2017-07-27T03:19:57.951Z,85.70
2017-07-27T03:20:54.630Z,85.73
2017-07-27T03:21:52.451Z,85.77
2017-07-27T03:22:49.339Z,85.80
2017-07-27T03:23:46.900Z,85.80
2017-07-27T03:24:44.198Z,85.82
2017-07-27T03:25:40.471Z,85.82
2017-07-27T03:26:36.715Z,85.83
2017-07-27T03:27:32.967Z,85.83
2017-07-27T03:28:29.231Z,85.87
2017-07-27T03:29:25.488Z,85.90
2017-07-27T03:30:21.783Z,85.89
2017-07-27T03:31:18.070Z,85.94
2017-07-27T03:32:14.306Z,85.96
2017-07-27T03:33:10.565Z,85.97
2017-07-27T03:34:06.818Z,85.96
2017-07-27T03:35:03.058Z,85.96
2017-07-27T03:35:59.303Z,85.95
2017-07-27T03:36:55.574Z,85.95
2017-07-27T03:37:51.829Z,85.96
2017-07-27T03:38:48.077Z,85.97
2017-07-27T03:39:44.323Z,85.98
2017-07-27T03:40:40.558Z,86.01
2017-07-27T03:41:36.802Z,86.03
2017-07-27T03:42:33.051Z,86.06
2017-07-27T03:43:29.306Z,86.08
2017-07-27T03:44:25.573Z,86.09
2017-07-27T03:45:21.830Z,86.13
2017-07-27T03:46:18.079Z,86.13
2017-07-27T03:47:14.319Z,86.14
2017-07-27T03:48:10.560Z,86.14
2017-07-27T03:49:06.806Z,86.21
2017-07-27T03:50:03.084Z,86.20
2017-07-27T03:50:59.343Z,86.21
2017-07-27T03:51:55.594Z,86.42
2017-07-27T03:52:51.839Z,86.03
2017-07-27T03:53:48.078Z,85.33
2017-07-27T03:54:44.347Z,84.65
2017-07-27T03:55:40.594Z,84.07
2017-07-27T03:56:36.846Z,83.63
2017-07-27T03:57:33.586Z,83.29
2017-07-27T03:58:29.835Z,82.99
2017-07-27T03:59:26.095Z,82.74
2017-07-27T04:00:22.355Z,82.53
2017-07-27T04:01:18.605Z,82.33
2017-07-27T04:02:14.851Z,82.14
2017-07-27T04:03:11.106Z,81.95
2017-07-27T04:04:07.362Z,81.83
2017-07-27T04:05:03.629Z,81.72
2017-07-27T04:05:59.871Z,81.61
2017-07-27T04:06:56.121Z,81.50
2017-07-27T04:07:52.376Z,81.41
2017-07-27T04:08:48.634Z,81.32
2017-07-27T04:09:44.897Z,81.22
2017-07-27T04:10:41.152Z,81.18
2017-07-27T04:11:37.419Z,81.09
2017-07-27T04:12:33.663Z,80.98
2017-07-27T04:13:29.927Z,80.88
2017-07-27T04:14:26.177Z,80.79
2017-07-27T04:15:22.440Z,80.71
2017-07-27T04:16:18.690Z,80.61
2017-07-27T04:17:14.948Z,80.53
2017-07-27T04:18:11.976Z,80.44
2017-07-27T04:19:08.241Z,80.38
2017-07-27T04:20:04.506Z,80.28
2017-07-27T04:21:00.754Z,80.22
2017-07-27T04:21:57.019Z,80.18
2017-07-27T04:22:53.287Z,80.16
2017-07-27T04:23:49.538Z,80.16
2017-07-27T04:24:45.798Z,80.08
2017-07-27T04:25:42.155Z,80.06
2017-07-27T04:26:38.457Z,80.03
2017-07-27T04:27:34.759Z,80.03
2017-07-27T04:28:31.018Z,80.02
2017-07-27T04:29:27.268Z,80.03
2017-07-27T04:30:23.551Z,80.08
2017-07-27T04:31:19.810Z,80.12
2017-07-27T04:32:16.071Z,80.12
2017-07-27T04:33:12.375Z,80.08
2017-07-27T04:34:08.618Z,80.05
2017-07-27T04:35:04.873Z,79.99
2017-07-27T04:36:01.151Z,79.92
2017-07-27T04:36:57.420Z,79.89
2017-07-27T04:37:53.667Z,79.86
2017-07-27T04:38:49.913Z,79.82
2017-07-27T04:39:46.174Z,79.84
2017-07-27T04:40:42.455Z,79.87
2017-07-27T04:41:38.714Z,79.86
2017-07-27T04:42:34.965Z,79.90
2017-07-27T04:43:31.227Z,79.94
2017-07-27T04:44:27.476Z,79.94
2017-07-27T04:45:23.732Z,79.97
2017-07-27T04:46:20.015Z,80.00
2017-07-27T04:47:16.270Z,80.06
2017-07-27T04:48:12.533Z,80.07
2017-07-27T04:49:08.792Z,80.04
2017-07-27T04:50:05.050Z,80.00
2017-07-27T04:51:01.319Z,80.00
2017-07-27T04:51:57.566Z,80.02
2017-07-27T04:52:53.826Z,80.02
2017-07-27T04:53:50.082Z,80.02
2017-07-27T04:54:46.331Z,80.05
2017-07-27T04:55:42.574Z,80.13
2017-07-27T04:56:38.835Z,80.15
2017-07-27T04:57:35.086Z,80.16
2017-07-27T04:58:31.350Z,80.15
2017-07-27T04:59:27.595Z,80.20
2017-07-27T05:00:23.854Z,80.21
2017-07-27T05:01:20.130Z,80.27
2017-07-27T05:02:16.386Z,80.32
2017-07-27T05:03:12.647Z,80.36
2017-07-27T05:04:08.910Z,80.39
2017-07-27T05:05:05.171Z,80.43
2017-07-27T05:06:01.422Z,80.45
2017-07-27T05:06:57.724Z,80.51
2017-07-27T05:07:53.983Z,80.56
2017-07-27T05:08:50.242Z,80.63
2017-07-27T05:09:46.511Z,80.73
2017-07-27T05:10:42.761Z,80.79
2017-07-27T05:11:39.014Z,80.78
2017-07-27T05:12:35.274Z,80.83
2017-07-27T05:13:31.539Z,80.87
2017-07-27T05:14:27.843Z,80.99
2017-07-27T05:15:24.101Z,81.04
2017-07-27T05:16:20.351Z,81.06
2017-07-27T05:17:16.641Z,81.13
2017-07-27T05:18:12.901Z,81.22
2017-07-27T05:19:09.163Z,81.24
2017-07-27T05:20:05.410Z,81.33
2017-07-27T05:21:01.651Z,81.33
2017-07-27T05:21:57.902Z,81.40
2017-07-27T05:22:54.166Z,81.44
2017-07-27T05:23:50.410Z,81.50
2017-07-27T05:24:46.658Z,81.50
2017-07-27T05:25:42.926Z,81.55
2017-07-27T05:26:39.177Z,81.65
2017-07-27T05:27:35.439Z,81.64
2017-07-27T05:28:31.698Z,81.66
2017-07-27T05:29:27.951Z,81.70
2017-07-27T05:30:24.193Z,81.73
2017-07-27T05:31:20.435Z,81.76
2017-07-27T05:32:16.683Z,81.79
2017-07-27T05:33:12.942Z,81.86
2017-07-27T05:34:09.202Z,81.87
2017-07-27T05:35:05.455Z,81.92
2017-07-27T05:36:01.717Z,81.95
2017-07-27T05:36:57.970Z,81.99
2017-07-27T05:37:54.238Z,81.99
2017-07-27T05:38:50.502Z,81.99
2017-07-27T05:39:46.755Z,82.06
2017-07-27T05:40:43.143Z,82.04
2017-07-27T05:41:39.417Z,82.09
2017-07-27T05:42:35.678Z,82.04
2017-07-27T05:43:31.935Z,82.02
2017-07-27T05:44:28.192Z,82.09
2017-07-27T05:45:24.441Z,82.12
2017-07-27T05:46:20.691Z,82.10
2017-07-27T05:47:16.951Z,82.20
2017-07-27T05:48:13.218Z,82.22
2017-07-27T05:49:09.474Z,82.21
2017-07-27T05:50:05.739Z,82.20
2017-07-27T05:51:02.024Z,82.15
2017-07-27T05:51:58.278Z,82.16
2017-07-27T05:52:54.522Z,82.20
2017-07-27T05:53:50.778Z,82.23
2017-07-27T05:54:47.037Z,82.26
2017-07-27T05:55:43.299Z,82.25
2017-07-27T05:56:39.542Z,82.29
2017-07-27T05:57:35.818Z,82.33
2017-07-27T05:58:32.074Z,82.35
2017-07-27T05:59:28.322Z,82.42
2017-07-27T06:00:24.562Z,82.42
2017-07-27T06:01:20.830Z,82.49
2017-07-27T06:02:17.077Z,82.48
2017-07-27T06:03:13.359Z,82.55
2017-07-27T06:04:09.614Z,82.54
2017-07-27T06:05:05.866Z,82.57
2017-07-27T06:06:02.118Z,82.60
2017-07-27T06:06:58.396Z,82.62
2017-07-27T06:07:54.641Z,82.57
2017-07-27T06:08:50.910Z,82.62
2017-07-27T06:09:47.151Z,82.58
2017-07-27T06:10:43.438Z,82.54
2017-07-27T06:11:39.711Z,82.56
2017-07-27T06:12:35.971Z,82.51
2017-07-27T06:13:32.255Z,82.46
2017-07-27T06:14:28.534Z,82.44
2017-07-27T06:15:26.367Z,82.45
2017-07-27T06:16:22.621Z,82.44
2017-07-27T06:17:18.886Z,82.41
2017-07-27T06:18:15.138Z,82.38
2017-07-27T06:19:11.402Z,82.33
2017-07-27T06:20:07.661Z,82.30
2017-07-27T06:21:03.934Z,82.32
2017-07-27T06:22:00.183Z,82.32
2017-07-27T06:22:56.430Z,82.33
2017-07-27T06:23:52.714Z,82.38
2017-07-27T06:24:49.015Z,82.37
2017-07-27T06:25:45.282Z,82.45
2017-07-27T06:26:42.011Z,82.48
2017-07-27T06:27:38.962Z,82.50
2017-07-27T06:28:35.202Z,82.45
2017-07-27T06:29:31.459Z,82.45
2017-07-27T06:30:27.753Z,82.40
2017-07-27T06:31:23.998Z,82.45
2017-07-27T06:32:20.254Z,82.42
2017-07-27T06:33:16.498Z,82.40
2017-07-27T06:34:12.774Z,82.35
2017-07-27T06:35:09.027Z,82.33
2017-07-27T06:36:05.270Z,82.33
2017-07-27T06:37:01.536Z,82.27
2017-07-27T06:37:57.791Z,82.26
2017-07-27T06:38:54.026Z,82.25
2017-07-27T06:39:50.298Z,82.22
2017-07-27T06:40:46.554Z,82.19
2017-07-27T06:41:42.816Z,82.15
2017-07-27T06:42:39.067Z,82.18
2017-07-27T06:43:35.310Z,82.17
2017-07-27T06:44:31.568Z,82.18
2017-07-27T06:45:27.830Z,82.16
2017-07-27T06:46:24.075Z,82.13
2017-07-27T06:47:20.311Z,82.13
2017-07-27T06:48:16.559Z,82.10
2017-07-27T06:49:12.798Z,82.10
2017-07-27T06:50:09.063Z,82.07
2017-07-27T06:51:05.327Z,82.09
2017-07-27T06:52:01.581Z,82.13
2017-07-27T06:52:57.829Z,82.19
2017-07-27T06:53:54.062Z,82.23
2017-07-27T06:54:50.350Z,82.29
2017-07-27T06:55:46.602Z,82.29
2017-07-27T06:56:42.842Z,82.37
2017-07-27T06:57:39.151Z,82.39
2017-07-27T06:58:35.471Z,82.44
2017-07-27T06:59:31.776Z,82.46
2017-07-27T07:00:28.555Z,82.48
2017-07-27T07:01:24.809Z,82.46
2017-07-27T07:02:21.051Z,82.49
2017-07-27T07:03:17.299Z,82.51
2017-07-27T07:04:13.551Z,82.53
2017-07-27T07:05:09.818Z,82.64
2017-07-27T07:06:06.071Z,82.69
2017-07-27T07:07:02.314Z,82.70
2017-07-27T07:07:58.563Z,82.70
2017-07-27T07:08:54.799Z,82.80
2017-07-27T07:09:51.050Z,82.77
2017-07-27T07:10:47.314Z,82.79
2017-07-27T07:11:43.563Z,82.83
2017-07-27T07:12:39.809Z,82.84
2017-07-27T07:13:36.070Z,82.90
2017-07-27T07:14:32.314Z,82.96
2017-07-27T07:15:28.600Z,83.00
2017-07-27T07:16:24.858Z,83.05
2017-07-27T07:18:27.592Z,83.13
2017-07-27T07:19:27.945Z,83.21
2017-07-27T07:20:24.391Z,83.28
2017-07-27T07:21:23.804Z,83.30
2017-07-27T07:22:21.179Z,83.36
2017-07-27T07:23:17.522Z,83.36
2017-07-27T07:24:15.739Z,83.34
2017-07-27T07:26:17.979Z,83.48
2017-07-27T07:27:14.275Z,83.51
2017-07-27T07:28:10.558Z,83.50
2017-07-27T07:29:06.835Z,83.54
2017-07-27T07:30:03.078Z,83.54
2017-07-27T07:30:59.355Z,83.57
2017-07-27T07:31:59.247Z,83.63
2017-07-27T07:34:04.864Z,83.99
2017-07-27T07:35:01.248Z,84.16
2017-07-27T07:35:57.646Z,84.33
2017-07-27T07:36:53.970Z,84.48
2017-07-27T07:37:50.683Z,84.56
2017-07-27T07:38:48.043Z,84.61
2017-07-27T07:39:45.213Z,84.70
2017-07-27T07:40:41.968Z,84.86
2017-07-27T07:41:38.422Z,84.92
2017-07-27T07:42:36.743Z,84.96
2017-07-27T07:43:36.676Z,85.02
2017-07-27T07:44:34.000Z,85.08
2017-07-27T07:45:30.812Z,85.12
2017-07-27T07:46:27.582Z,85.14
2017-07-27T07:47:26.871Z,85.23
2017-07-27T07:48:23.360Z,85.26
2017-07-27T07:49:20.863Z,85.33
2017-07-27T07:50:20.207Z,85.39
2017-07-27T07:51:17.450Z,85.49
2017-07-27T07:52:13.864Z,85.59
2017-07-27T07:53:10.326Z,85.65
2017-07-27T07:54:07.672Z,85.69
2017-07-27T07:55:04.031Z,85.76
2017-07-27T07:56:00.664Z,85.77
2017-07-27T07:56:57.027Z,85.79
2017-07-27T07:57:54.243Z,85.79
2017-07-27T07:58:50.538Z,85.89
2017-07-27T07:59:46.827Z,85.90
2017-07-27T08:00:43.331Z,85.88
2017-07-27T08:08:01.527Z,85.88
2017-07-27T08:09:33.268Z,85.89
2017-07-27T08:11:55.742Z,85.92
2017-07-27T08:14:13.223Z,86.00
2017-07-27T08:15:18.397Z,85.94
2017-07-27T08:16:15.174Z,85.96
2017-07-27T08:17:15.619Z,86.00
2017-07-27T08:18:12.728Z,86.01
2017-07-27T08:19:09.253Z,86.03
2017-07-27T08:20:06.479Z,86.03
2017-07-27T08:21:02.719Z,86.09
2017-07-27T08:22:02.952Z,86.10
2017-07-27T08:22:59.531Z,86.13
2017-07-27T08:23:56.064Z,86.18
2017-07-27T08:24:52.307Z,86.19
2017-07-27T08:25:48.543Z,86.22
2017-07-27T08:26:45.263Z,86.27
2017-07-27T08:27:41.991Z,86.28
2017-07-27T08:28:38.256Z,86.29
2017-07-27T08:29:34.538Z,86.35
2017-07-27T08:30:30.836Z,86.30
2017-07-27T08:31:27.090Z,86.25
2017-07-27T08:32:23.374Z,86.24
2017-07-27T08:33:19.684Z,86.19
2017-07-27T08:34:15.918Z,86.13
2017-07-27T08:35:12.490Z,86.12
2017-07-27T08:36:08.738Z,86.03
2017-07-27T08:37:04.981Z,85.93
2017-07-27T08:38:01.226Z,85.86
2017-07-27T08:38:57.480Z,85.80
2017-07-27T08:39:53.727Z,85.73
2017-07-27T08:40:49.970Z,85.63
2017-07-27T08:41:46.219Z,85.59
2017-07-27T08:42:42.458Z,85.56
2017-07-27T08:43:38.718Z,85.55
2017-07-27T08:44:34.949Z,85.52
2017-07-27T08:45:31.190Z,85.47
2017-07-27T08:46:27.430Z,85.46
2017-07-27T08:47:23.671Z,85.48
2017-07-27T08:48:19.922Z,85.44
2017-07-27T08:49:16.162Z,85.45
2017-07-27T08:50:12.444Z,85.43
2017-07-27T08:51:08.682Z,85.41
2017-07-27T08:52:04.919Z,85.41
2017-07-27T08:53:01.167Z,85.43
2017-07-27T08:53:57.437Z,85.45
2017-07-27T08:54:54.062Z,85.43
2017-07-27T08:55:50.302Z,85.44
2017-07-27T08:56:46.546Z,85.45
2017-07-27T08:57:42.782Z,85.38
2017-07-27T08:58:39.050Z,85.33
2017-07-27T08:59:35.299Z,85.28
2017-07-27T09:00:31.547Z,85.25
2017-07-27T09:01:27.782Z,85.30
2017-07-27T09:02:24.014Z,85.27
2017-07-27T09:03:20.253Z,85.21
2017-07-27T09:04:16.526Z,85.13
2017-07-27T09:05:12.762Z,85.04
2017-07-27T09:06:09.002Z,84.98
2017-07-27T09:07:05.262Z,84.92
2017-07-27T09:08:01.502Z,84.88
2017-07-27T09:08:57.765Z,84.83
2017-07-27T09:09:54.034Z,84.75
2017-07-27T09:10:50.283Z,84.64
2017-07-27T09:11:46.519Z,84.53
2017-07-27T09:12:42.776Z,84.49
2017-07-27T09:13:39.036Z,84.45
2017-07-27T09:14:35.290Z,84.42
2017-07-27T09:15:31.539Z,84.37
2017-07-27T09:16:27.793Z,84.36
2017-07-27T09:17:24.045Z,84.37
2017-07-27T09:18:20.290Z,84.32
2017-07-27T09:19:16.563Z,84.23
2017-07-27T09:20:12.824Z,84.20
2017-07-27T09:21:09.074Z,84.16
2017-07-27T09:22:05.318Z,84.06
2017-07-27T09:23:01.577Z,83.97
2017-07-27T09:23:57.835Z,83.87
2017-07-27T09:24:54.115Z,83.79
2017-07-27T09:25:50.398Z,83.68
2017-07-27T09:26:46.654Z,83.62
2017-07-27T09:27:42.913Z,83.63
2017-07-27T09:28:39.151Z,83.64
2017-07-27T09:29:35.431Z,83.64
2017-07-27T09:30:31.690Z,83.68
2017-07-27T09:31:27.934Z,83.68
2017-07-27T09:32:24.174Z,83.63
2017-07-27T09:33:20.419Z,83.57
2017-07-27T09:34:16.706Z,83.54
2017-07-27T09:35:12.963Z,83.55
2017-07-27T09:36:09.202Z,83.57
2017-07-27T09:37:05.462Z,83.52
2017-07-27T09:38:01.739Z,83.52
2017-07-27T09:38:57.998Z,83.47
2017-07-27T09:39:54.253Z,83.34
2017-07-27T09:40:50.494Z,83.18
2017-07-27T09:41:46.739Z,83.06
2017-07-27T09:42:42.978Z,82.97
2017-07-27T09:43:39.224Z,82.93
2017-07-27T09:44:35.503Z,82.95
2017-07-27T09:45:31.743Z,82.92
2017-07-27T09:46:27.982Z,82.86
2017-07-27T09:47:24.234Z,82.76
2017-07-27T09:48:20.481Z,82.68
2017-07-27T09:49:16.731Z,82.58
2017-07-27T09:50:12.991Z,82.53
2017-07-27T09:51:09.245Z,82.48
2017-07-27T09:52:05.511Z,82.43
2017-07-27T09:53:01.772Z,82.39
2017-07-27T09:53:58.032Z,82.29
2017-07-27T09:54:54.307Z,82.20
2017-07-27T09:55:50.555Z,82.14
2017-07-27T09:56:46.803Z,82.02
2017-07-27T09:57:47.754Z,82.02
2017-07-27T09:58:48.687Z,82.00
2017-07-27T09:59:44.936Z,81.90
2017-07-27T10:00:41.199Z,81.88
2017-07-27T10:01:37.448Z,81.95
2017-07-27T10:02:33.695Z,81.93
2017-07-27T10:03:29.950Z,81.90
2017-07-27T10:04:26.194Z,81.85
2017-07-27T10:05:22.433Z,81.81
2017-07-27T10:06:18.690Z,81.75
2017-07-27T10:07:15.014Z,81.58
2017-07-27T10:08:11.267Z,81.41
2017-07-27T10:09:07.525Z,81.31
2017-07-27T10:10:03.770Z,81.28
2017-07-27T10:11:00.027Z,81.33
2017-07-27T10:11:56.406Z,81.33
2017-07-27T10:12:52.650Z,81.35
2017-07-27T10:13:48.906Z,81.33
2017-07-27T10:14:45.159Z,81.36
2017-07-27T10:15:41.425Z,81.34
2017-07-27T10:16:37.670Z,81.30
2017-07-27T10:17:33.914Z,81.27
2017-07-27T10:18:30.154Z,81.28
2017-07-27T10:19:26.426Z,81.27
2017-07-27T10:20:22.675Z,81.24
2017-07-27T10:21:18.942Z,81.22
2017-07-27T10:22:15.187Z,81.28
2017-07-27T10:23:11.433Z,81.26
2017-07-27T10:24:07.739Z,81.19
2017-07-27T10:25:03.987Z,81.11
2017-07-27T10:26:00.275Z,81.08
2017-07-27T10:26:56.838Z,81.07
2017-07-27T10:27:53.686Z,81.05
2017-07-27T10:28:50.350Z,81.06
2017-07-27T10:29:46.978Z,81.10
2017-07-27T10:30:43.223Z,81.10
2017-07-27T10:31:39.497Z,81.11
2017-07-27T10:32:35.748Z,81.08
2017-07-27T10:33:31.998Z,81.04
2017-07-27T10:34:28.295Z,81.02
2017-07-27T10:35:24.543Z,81.06
2017-07-27T10:36:20.810Z,81.10
2017-07-27T10:37:17.888Z,81.17
2017-07-27T10:38:14.145Z,81.24
2017-07-27T10:39:10.390Z,81.19
2017-07-27T10:40:06.627Z,81.08
2017-07-27T10:41:02.870Z,80.98
2017-07-27T10:41:59.591Z,80.96
2017-07-27T10:42:56.303Z,80.97
2017-07-27T10:43:52.562Z,80.93
2017-07-27T10:44:48.811Z,80.84
2017-07-27T10:45:45.083Z,80.85
2017-07-27T10:46:41.355Z,80.97
2017-07-27T10:47:37.636Z,80.99
2017-07-27T10:48:33.987Z,80.87
2017-07-27T10:49:30.335Z,80.78
2017-07-27T10:50:26.623Z,80.70
2017-07-27T10:51:23.017Z,80.65
2017-07-27T10:52:19.418Z,80.75
2017-07-27T10:53:15.666Z,80.75
2017-07-27T10:54:11.910Z,80.78
2017-07-27T10:55:08.175Z,80.80
2017-07-27T10:56:04.446Z,80.68
2017-07-27T10:57:00.743Z,80.77
2017-07-27T10:57:57.004Z,80.76
2017-07-27T10:58:54.291Z,80.65
2017-07-27T10:59:50.542Z,80.62
2017-07-27T11:00:48.698Z,80.51
2017-07-27T11:01:44.939Z,80.34
2017-07-27T11:02:41.194Z,80.07
2017-07-27T11:03:37.439Z,79.94
2017-07-27T11:04:33.697Z,79.84
2017-07-27T11:05:29.935Z,79.76
2017-07-27T11:06:26.186Z,79.77
2017-07-27T11:07:23.283Z,79.76
2017-07-27T11:08:19.526Z,79.80
2017-07-27T11:09:15.774Z,79.64
2017-07-27T11:10:12.014Z,79.42
2017-07-27T11:11:08.268Z,79.36
2017-07-27T11:12:05.315Z,79.29
2017-07-27T11:13:01.577Z,79.28
2017-07-27T11:13:57.826Z,79.24
2017-07-27T11:14:54.074Z,79.14
2017-07-27T11:15:50.335Z,78.91
2017-07-27T11:16:46.606Z,78.75
2017-07-27T11:17:42.886Z,78.45
2017-07-27T11:18:39.134Z,78.38
2017-07-27T11:19:35.387Z,78.18
2017-07-27T11:20:31.659Z,77.96
2017-07-27T11:21:27.931Z,77.88
2017-07-27T11:22:24.177Z,77.87
2017-07-27T11:23:20.439Z,77.79
2017-07-27T11:24:16.678Z,77.67
2017-07-27T11:25:12.935Z,77.19
2017-07-27T11:26:09.219Z,77.08
2017-07-27T11:27:05.462Z,76.85
2017-07-27T11:28:01.738Z,76.56
2017-07-27T11:28:57.993Z,76.49
2017-07-27T11:29:54.241Z,76.35
2017-07-27T11:30:50.499Z,76.17
2017-07-27T11:31:46.784Z,76.30
2017-07-27T11:32:43.139Z,76.12
2017-07-27T11:33:41.271Z,75.75
2017-07-27T11:34:37.533Z,75.00
2017-07-27T11:35:33.815Z,74.63
2017-07-27T11:36:30.071Z,74.65
2017-07-27T11:37:26.314Z,74.52
2017-07-27T11:38:22.570Z,74.53
2017-07-27T11:39:18.825Z,74.13
2017-07-27T11:40:15.079Z,73.96
2017-07-27T11:41:11.371Z,73.77
2017-07-27T11:42:07.611Z,73.36
2017-07-27T11:43:03.877Z,73.21
2017-07-27T11:44:00.127Z,73.10
2017-07-27T11:44:56.359Z,73.20
2017-07-27T11:45:52.593Z,73.13
2017-07-27T11:46:48.834Z,73.00
2017-07-27T11:47:45.070Z,72.98
2017-07-27T11:48:41.698Z,73.07
2017-07-27T11:49:37.939Z,72.81
2017-07-27T11:50:34.179Z,72.89
2017-07-27T11:51:30.430Z,72.80
2017-07-27T11:52:26.670Z,72.81
2017-07-27T11:53:22.990Z,72.74
2017-07-27T11:54:19.258Z,72.80
2017-07-27T11:55:15.533Z,72.81
2017-07-27T11:56:11.767Z,72.90
2017-07-27T11:57:08.010Z,73.04
2017-07-27T11:58:04.259Z,73.08
2017-07-27T11:59:00.526Z,73.11
2017-07-27T11:59:56.769Z,73.08
2017-07-27T12:00:53.018Z,72.86
2017-07-27T12:01:49.259Z,72.77
2017-07-27T12:02:45.498Z,72.65
2017-07-27T12:03:41.742Z,72.32
2017-07-27T12:04:37.991Z,72.37
2017-07-27T12:05:34.331Z,72.52
2017-07-27T12:06:30.664Z,72.53
2017-07-27T12:07:26.917Z,72.45
2017-07-27T12:08:23.152Z,72.27
2017-07-27T12:09:19.408Z,72.37
2017-07-27T12:10:15.668Z,72.28
2017-07-27T12:11:11.914Z,72.20
2017-07-27T12:12:08.176Z,72.08
2017-07-27T12:13:04.480Z,72.13
2017-07-27T12:14:00.727Z,72.23
2017-07-27T12:14:56.983Z,72.32
2017-07-27T12:15:53.227Z,72.31
2017-07-27T12:16:51.350Z,72.39
2017-07-27T12:17:47.591Z,72.13
2017-07-27T12:18:43.846Z,71.50
2017-07-27T12:19:40.106Z,71.06
2017-07-27T12:20:36.395Z,70.97
2017-07-27T12:21:32.653Z,70.67
2017-07-27T12:22:28.922Z,70.73
2017-07-27T12:23:25.202Z,70.50
2017-07-27T12:24:21.474Z,70.40
2017-07-27T12:25:17.730Z,70.42
2017-07-27T12:26:13.963Z,70.29
2017-07-27T12:27:10.211Z,70.36
2017-07-27T12:28:06.478Z,70.76
2017-07-27T12:29:02.742Z,70.87
2017-07-27T12:30:01.070Z,70.70
2017-07-27T12:30:57.327Z,70.27
2017-07-27T12:31:53.591Z,69.94